createdAt,value
2019-04-03T00:02:13.230Z,8.58
2019-04-03T00:04:41.744Z,9.20
2019-04-03T00:07:10.141Z,9.85
2019-04-03T00:09:38.555Z,9.60
2019-04-03T00:12:06.978Z,9.33
2019-04-03T00:14:35.402Z,9.63
2019-04-03T00:17:03.814Z,9.95
2019-04-03T00:19:32.329Z,10.25
2019-04-03T00:22:00.811Z,9.58
2019-04-03T00:24:29.244Z,9.75
2019-04-03T00:26:57.655Z,10.08
2019-04-03T00:29:26.138Z,9.68
2019-04-03T00:31:54.540Z,9.90
2019-04-03T00:34:23.513Z,9.78
2019-04-03T00:36:53.169Z,5.35
2019-04-03T00:39:22.650Z,5.17
2019-04-03T00:41:54.210Z,5.12
2019-04-03T00:44:22.700Z,5.35
2019-04-03T00:46:53.811Z,5.25
2019-04-03T00:49:24.433Z,5.28
2019-04-03T00:51:53.005Z,5.75
2019-04-03T00:54:21.402Z,5.90
2019-04-03T00:56:49.817Z,5.42
2019-04-03T00:59:18.246Z,6.22
2019-04-03T01:01:46.875Z,5.50
2019-04-03T01:04:15.581Z,6.03
2019-04-03T01:06:43.995Z,6.20
2019-04-03T01:09:12.498Z,6.47
2019-04-03T01:11:40.992Z,6.15
2019-04-03T01:14:09.403Z,6.05
2019-04-03T01:16:37.802Z,5.95
2019-04-03T01:19:08.039Z,6.20
2019-04-03T01:21:37.413Z,5.92
2019-04-03T01:24:08.363Z,5.40
2019-04-03T01:26:36.267Z,5.80
2019-04-03T01:29:04.908Z,5.08
2019-04-03T01:31:33.396Z,4.55
2019-04-03T01:34:01.807Z,4.70
2019-04-03T01:36:30.207Z,4.08
2019-04-03T01:38:58.621Z,4.20
2019-04-03T01:41:27.031Z,3.70
2019-04-03T01:43:55.433Z,4.00
2019-04-03T01:46:23.854Z,3.75
2019-04-03T01:48:52.386Z,3.05
2019-04-03T01:51:20.846Z,4.03
2019-04-03T01:53:49.491Z,3.60
2019-04-03T01:56:20.755Z,3.85
2019-04-03T01:58:49.503Z,4.12
2019-04-03T02:01:17.891Z,4.28
2019-04-03T02:03:46.323Z,4.33
2019-04-03T02:06:20.510Z,4.40
2019-04-03T02:08:48.913Z,4.83
2019-04-03T02:11:18.633Z,4.70
2019-04-03T02:13:47.596Z,4.30
2019-04-03T02:16:16.115Z,5.10
2019-04-03T02:18:44.588Z,4.87
2019-04-03T02:21:13.198Z,4.70
2019-04-03T02:23:41.622Z,4.85
2019-04-03T02:28:44.137Z,5.47
2019-04-03T02:31:12.599Z,5.10
2019-04-03T02:33:40.989Z,4.90
2019-04-03T02:36:12.521Z,5.40
2019-04-03T02:38:39.540Z,5.35
2019-04-03T02:41:08.083Z,5.37
2019-04-03T02:43:36.634Z,5.22
2019-04-03T02:46:05.075Z,5.75
2019-04-03T02:48:37.211Z,5.50
2019-04-03T02:51:03.897Z,6.37
2019-04-03T02:53:32.440Z,6.33
2019-04-03T02:56:01.028Z,5.62
2019-04-03T02:58:29.507Z,5.78
2019-04-03T03:00:57.915Z,6.33
2019-04-03T03:03:26.343Z,6.33
2019-04-03T03:05:54.817Z,6.58
2019-04-03T03:08:23.666Z,6.53
2019-04-03T03:10:53.010Z,6.65
2019-04-03T03:13:22.167Z,7.17
2019-04-03T03:15:50.958Z,7.83
2019-04-03T03:18:19.627Z,9.20
2019-04-03T03:20:49.123Z,9.90
2019-04-03T03:23:18.520Z,10.98
2019-04-03T03:25:49.452Z,9.80
2019-04-03T03:28:18.265Z,10.68
2019-04-03T03:30:57.937Z,11.05
2019-04-03T03:33:30.828Z,10.88
2019-04-03T03:35:50.352Z,11.03
2019-04-03T03:38:19.528Z,10.25
2019-04-03T03:40:49.293Z,10.00
2019-04-03T03:43:18.740Z,9.25
2019-04-03T03:45:51.413Z,10.23
2019-04-03T03:48:19.196Z,10.43
2019-04-03T03:50:47.962Z,11.10
2019-04-03T03:53:16.550Z,10.23
2019-04-03T03:55:45.568Z,11.97
2019-04-03T03:58:14.227Z,11.65
2019-04-03T04:00:44.203Z,11.85
2019-04-03T04:03:13.473Z,11.55
2019-04-03T04:05:42.038Z,13.10
2019-04-03T04:08:11.502Z,13.60
2019-04-03T04:10:40.518Z,14.03
2019-04-03T04:13:13.343Z,14.20
2019-04-03T04:15:39.402Z,14.68
2019-04-03T04:18:08.328Z,15.53
2019-04-03T04:20:38.562Z,15.28
2019-04-03T04:23:07.414Z,14.95
2019-04-03T04:25:36.317Z,15.75
2019-04-03T04:28:05.006Z,17.90
2019-04-03T04:30:34.250Z,17.67
2019-04-03T04:33:02.677Z,19.15
2019-04-03T04:35:31.090Z,18.65
2019-04-03T04:37:59.618Z,18.80
2019-04-03T04:40:29.012Z,18.70
2019-04-03T04:42:58.263Z,19.52
2019-04-03T04:45:26.742Z,17.55
2019-04-03T04:47:56.950Z,17.37
2019-04-03T04:50:25.787Z,17.67
2019-04-03T04:52:54.576Z,18.95
2019-04-03T04:55:23.071Z,18.37
2019-04-03T04:57:51.478Z,19.95
2019-04-03T05:00:19.964Z,19.77
2019-04-03T05:02:51.518Z,20.25
2019-04-03T05:05:19.982Z,21.15
2019-04-03T05:07:48.375Z,22.65
2019-04-03T05:10:18.014Z,21.82
2019-04-03T05:12:47.087Z,22.27
2019-04-03T05:15:16.346Z,22.07
2019-04-03T05:17:46.189Z,22.50
2019-04-03T05:20:14.762Z,23.38
2019-04-03T05:22:43.314Z,22.77
2019-04-03T05:25:11.790Z,22.02
2019-04-03T05:27:40.195Z,22.48
2019-04-03T05:30:09.162Z,23.92
2019-04-03T05:32:37.571Z,23.07
2019-04-03T05:35:06.594Z,24.05
2019-04-03T05:37:35.139Z,24.60
2019-04-03T05:40:04.243Z,24.65
2019-04-03T05:42:32.658Z,25.02
2019-04-03T05:45:03.840Z,25.65
2019-04-03T05:47:31.262Z,28.45
2019-04-03T05:49:59.695Z,27.27
2019-04-03T05:52:28.258Z,27.65
2019-04-03T05:54:56.698Z,27.25
2019-04-03T05:57:25.182Z,26.97
2019-04-03T06:00:00.700Z,25.85
2019-04-03T06:02:23.985Z,27.30
2019-04-03T06:04:52.568Z,26.23
2019-04-03T06:07:21.036Z,26.48
2019-04-03T06:09:49.457Z,25.90
2019-04-03T06:12:19.108Z,26.27
2019-04-03T06:14:49.691Z,26.80
2019-04-03T06:17:17.895Z,24.60
2019-04-03T06:19:46.685Z,24.98
2019-04-03T06:22:17.091Z,24.23
2019-04-03T06:24:45.872Z,22.70
2019-04-03T06:27:14.477Z,22.07
2019-04-03T06:29:43.050Z,22.58
2019-04-03T06:32:11.656Z,23.57
2019-04-03T06:34:42.446Z,22.20
2019-04-03T06:37:10.225Z,22.32
2019-04-03T06:39:38.850Z,19.57
2019-04-03T06:42:07.348Z,19.30
2019-04-03T06:44:35.762Z,17.77
2019-04-03T06:47:04.217Z,17.95
2019-04-03T06:49:32.636Z,16.93
2019-04-03T06:52:01.188Z,17.48
2019-04-03T06:54:31.923Z,15.85
2019-04-03T06:57:00.215Z,17.40
2019-04-03T06:59:28.620Z,15.95
2019-04-03T07:01:57.064Z,16.07
2019-04-03T07:04:25.466Z,15.10
2019-04-03T07:06:55.864Z,16.15
2019-04-03T07:09:34.116Z,15.75
2019-04-03T07:11:57.093Z,14.15
2019-04-03T07:14:26.768Z,13.15
2019-04-03T07:16:54.946Z,12.58
2019-04-03T07:19:23.469Z,12.58
2019-04-03T07:21:54.442Z,11.88
2019-04-03T07:24:22.018Z,12.20
2019-04-03T07:26:50.566Z,11.18
2019-04-03T07:29:19.011Z,11.15
2019-04-03T07:31:47.430Z,11.33
2019-04-03T07:34:15.874Z,10.78
2019-04-03T07:36:45.657Z,11.00
2019-04-03T07:39:14.470Z,11.30
2019-04-03T07:41:43.119Z,12.35
2019-04-03T07:44:11.703Z,11.90
2019-04-03T07:46:40.466Z,11.53
2019-04-03T07:49:09.780Z,10.93
2019-04-03T07:51:38.526Z,11.05
2019-04-03T07:54:07.322Z,11.80
2019-04-03T07:56:35.887Z,10.72
2019-04-03T07:59:04.783Z,11.63
2019-04-03T08:01:33.544Z,11.40
2019-04-03T08:04:02.047Z,11.50
2019-04-03T08:06:30.459Z,11.68
2019-04-03T08:09:07.289Z,11.08
2019-04-03T08:11:29.173Z,10.48
2019-04-03T08:13:57.894Z,11.12
2019-04-03T08:16:26.399Z,10.50
2019-04-03T08:18:54.997Z,10.85
2019-04-03T08:21:23.500Z,11.25
2019-04-03T08:23:51.906Z,10.70
2019-04-03T08:26:20.396Z,10.00
2019-04-03T08:28:49.078Z,9.25
2019-04-03T08:31:17.859Z,9.23
2019-04-03T08:33:46.453Z,8.80
2019-04-03T08:36:25.637Z,8.00
2019-04-03T08:38:49.456Z,7.92
2019-04-03T08:41:18.254Z,7.42
2019-04-03T08:43:46.655Z,7.72
2019-04-03T08:46:20.748Z,6.95
2019-04-03T08:48:49.166Z,6.30
2019-04-03T08:51:17.677Z,6.58
2019-04-03T08:53:46.155Z,6.12
2019-04-03T08:56:17.113Z,6.28
2019-04-03T08:58:46.244Z,7.55
2019-04-03T09:01:14.877Z,6.50
2019-04-03T09:03:43.936Z,6.75
2019-04-03T09:06:17.147Z,6.50
2019-04-03T09:08:45.599Z,5.80
2019-04-03T09:11:14.074Z,5.42
2019-04-03T09:13:43.745Z,4.75
2019-04-03T09:16:21.176Z,4.42
2019-04-03T09:18:49.898Z,5.40
2019-04-03T09:21:18.368Z,4.92
2019-04-03T09:23:46.847Z,5.60
2019-04-03T09:26:18.704Z,6.37
2019-04-03T09:28:47.121Z,5.47
2019-04-03T09:31:18.625Z,5.85
2019-04-03T09:33:45.680Z,5.90
2019-04-03T09:36:15.774Z,5.55
2019-04-03T09:38:44.959Z,4.95
2019-04-03T09:41:13.422Z,4.30
2019-04-03T09:43:42.071Z,5.35
2019-04-03T09:46:19.282Z,4.90
2019-04-03T09:48:47.903Z,4.92
2019-04-03T09:51:18.650Z,4.67
2019-04-03T09:53:46.886Z,4.55
2019-04-03T09:56:15.417Z,3.90
2019-04-03T09:58:44.043Z,4.30
2019-04-03T10:01:15.674Z,4.37
2019-04-03T10:03:42.742Z,3.77
2019-04-03T10:06:12.954Z,3.70
2019-04-03T10:08:41.598Z,3.72
2019-04-03T10:11:10.411Z,4.45
2019-04-03T10:13:39.064Z,4.05
2019-04-03T10:16:07.460Z,4.00
2019-04-03T10:18:36.217Z,3.83
2019-04-03T10:21:04.828Z,4.28
2019-04-03T10:23:35.463Z,3.58
2019-04-03T10:26:04.475Z,4.20
2019-04-03T10:28:34.218Z,4.00
2019-04-03T10:31:02.654Z,3.67
2019-04-03T10:33:32.054Z,4.35
2019-04-03T10:36:00.966Z,4.75
2019-04-03T10:38:29.452Z,4.83
2019-04-03T10:40:57.875Z,5.50
2019-04-03T10:43:26.270Z,5.00
2019-04-03T10:45:54.670Z,5.47
2019-04-03T10:48:23.104Z,5.50
2019-04-03T10:50:51.530Z,4.87
2019-04-03T10:53:20.708Z,5.15
2019-04-03T10:55:49.318Z,5.28
2019-04-03T10:58:17.849Z,4.90
2019-04-03T11:00:46.318Z,4.53
2019-04-03T11:03:14.797Z,4.15
2019-04-03T11:05:43.201Z,4.22
2019-04-03T11:08:11.599Z,3.15
2019-04-03T11:10:40.318Z,3.22
2019-04-03T11:13:08.982Z,3.75
2019-04-03T11:15:37.390Z,3.83
2019-04-03T11:18:05.901Z,3.92
2019-04-03T11:20:35.804Z,2.12
2019-04-03T11:23:07.143Z,2.72
2019-04-03T11:25:34.955Z,2.50
2019-04-03T11:28:05.245Z,1.70
2019-04-03T11:30:33.483Z,1.82
2019-04-03T11:33:01.931Z,2.20
2019-04-03T11:35:30.581Z,2.35
2019-04-03T11:38:11.187Z,2.77
2019-04-03T11:40:29.146Z,2.27
2019-04-03T11:42:57.680Z,2.77
2019-04-03T11:45:26.166Z,2.83
2019-04-03T11:47:54.595Z,3.35
2019-04-03T11:50:25.084Z,4.00
2019-04-03T11:52:54.240Z,4.47
2019-04-03T11:55:23.417Z,4.72
2019-04-03T11:57:51.959Z,5.03
2019-04-03T12:00:22.435Z,4.58
2019-04-03T12:02:51.155Z,4.40
2019-04-03T12:05:20.964Z,4.35
2019-04-03T12:07:50.124Z,4.22
2019-04-03T12:10:19.214Z,4.87
2019-04-03T12:12:48.009Z,5.03
2019-04-03T12:15:20.006Z,4.95
2019-04-03T12:17:46.948Z,5.55
2019-04-03T12:20:17.337Z,5.35
2019-04-03T12:22:45.788Z,5.30
2019-04-03T12:25:15.080Z,5.87
2019-04-03T12:27:45.968Z,5.83
2019-04-03T12:30:15.058Z,5.90
2019-04-03T12:32:48.714Z,7.08
2019-04-03T12:35:14.438Z,6.45
2019-04-03T12:37:42.855Z,5.95
2019-04-03T12:40:11.754Z,6.37
2019-04-03T12:42:40.157Z,5.92
2019-04-03T12:45:09.522Z,6.05
2019-04-03T12:47:38.235Z,5.30
2019-04-03T12:50:07.910Z,5.45
2019-04-03T12:52:36.698Z,5.80
2019-04-03T12:55:07.067Z,5.15
2019-04-03T12:57:38.523Z,5.35
2019-04-03T13:00:10.614Z,4.90
2019-04-03T13:02:39.111Z,4.70
2019-04-03T13:05:08.562Z,4.90
2019-04-03T13:07:37.502Z,4.50
2019-04-03T13:10:09.175Z,5.25
2019-04-03T13:12:38.015Z,4.92
2019-04-03T13:15:09.415Z,4.90
2019-04-03T13:17:38.238Z,4.47
2019-04-03T13:20:08.074Z,4.10
2019-04-03T13:22:37.094Z,2.55
2019-04-03T13:25:06.933Z,2.90
2019-04-03T13:27:35.298Z,3.20
2019-04-03T13:30:06.388Z,2.83
2019-04-03T13:32:34.975Z,2.67
2019-04-03T13:35:05.907Z,2.83
2019-04-03T13:37:35.097Z,2.95
2019-04-03T13:40:06.776Z,2.85
2019-04-03T13:42:35.568Z,3.20
2019-04-03T13:45:06.530Z,3.00
2019-04-03T13:47:35.019Z,3.22
2019-04-03T13:50:05.113Z,3.00
2019-04-03T13:52:40.850Z,2.77
2019-04-03T13:55:05.314Z,2.90
2019-04-03T13:57:33.839Z,2.45
2019-04-03T14:00:16.709Z,2.60
2019-04-03T14:02:32.458Z,2.45
2019-04-03T14:05:00.904Z,2.85
2019-04-03T14:07:31.070Z,3.25
2019-04-03T14:09:59.491Z,2.65
2019-04-03T14:12:27.891Z,3.80
2019-04-03T14:14:56.353Z,3.00
2019-04-03T14:17:24.874Z,3.22
2019-04-03T14:19:53.592Z,2.90
2019-04-03T14:22:23.821Z,2.85
2019-04-03T14:24:52.746Z,3.20
2019-04-03T14:27:24.658Z,3.10
2019-04-03T14:29:51.486Z,3.35
2019-04-03T14:32:21.194Z,3.50
2019-04-03T14:34:50.148Z,3.08
2019-04-03T14:37:23.165Z,3.80
2019-04-03T14:39:48.835Z,3.30
2019-04-03T14:42:17.223Z,3.52
2019-04-03T14:44:46.581Z,3.55
2019-04-03T14:47:15.779Z,3.92
2019-04-03T14:49:44.209Z,4.05
2019-04-03T14:52:13.191Z,4.28
2019-04-03T14:54:41.614Z,3.90
2019-04-03T14:57:20.209Z,3.85
2019-04-03T14:59:40.190Z,4.20
2019-04-03T15:02:08.618Z,4.12
2019-04-03T15:04:37.672Z,4.40
2019-04-03T15:07:08.880Z,3.75
2019-04-03T15:09:36.365Z,3.70
2019-04-03T15:12:06.717Z,3.70
2019-04-03T15:14:34.930Z,3.70
2019-04-03T15:17:04.750Z,3.70
2019-04-03T15:19:33.478Z,3.85
2019-04-03T15:22:02.862Z,4.20
2019-04-03T15:24:32.383Z,3.70
2019-04-03T15:27:00.822Z,3.70
2019-04-03T15:29:29.482Z,3.70
2019-04-03T15:31:58.101Z,3.95
2019-04-03T15:34:28.524Z,4.60
2019-04-03T15:36:57.258Z,3.90
2019-04-03T15:39:26.192Z,4.22
2019-04-03T15:41:55.087Z,4.20
2019-04-03T15:44:23.802Z,4.67
2019-04-03T15:46:52.818Z,4.20
2019-04-03T15:49:21.289Z,4.10
2019-04-03T15:51:49.756Z,4.33
2019-04-03T15:54:18.178Z,4.30
2019-04-03T15:56:46.648Z,4.70
2019-04-03T15:59:15.430Z,3.72
2019-04-03T16:01:44.501Z,4.70
2019-04-03T16:04:12.918Z,3.67
2019-04-03T16:06:41.342Z,4.20
2019-04-03T16:09:10.281Z,4.70
2019-04-03T16:11:39.061Z,4.83
2019-04-03T16:14:08.107Z,3.80
2019-04-03T16:16:36.957Z,4.20
2019-04-03T16:19:05.470Z,3.90
2019-04-03T16:21:34.200Z,4.03
2019-04-03T16:24:02.812Z,4.08
2019-04-03T16:26:31.483Z,4.12
2019-04-03T16:28:59.998Z,4.37
2019-04-03T16:31:28.466Z,4.42
2019-04-03T16:33:56.917Z,4.80
2019-04-03T16:36:25.770Z,5.08
2019-04-03T16:38:54.214Z,4.62
2019-04-03T16:41:22.626Z,5.20
2019-04-03T16:43:51.053Z,4.67
2019-04-03T16:46:22.010Z,5.10
2019-04-03T16:48:51.075Z,6.45
2019-04-03T16:51:20.313Z,6.75
2019-04-03T16:53:48.790Z,5.60
2019-04-03T16:56:18.999Z,5.20
2019-04-03T16:58:47.844Z,5.30
2019-04-03T17:01:16.346Z,4.80
2019-04-03T17:03:44.778Z,3.42
2019-04-03T17:06:15.887Z,2.98
2019-04-03T17:08:43.416Z,3.17
2019-04-03T17:11:12.686Z,3.00
2019-04-03T17:13:41.325Z,3.22
2019-04-03T17:16:13.715Z,3.58
2019-04-03T17:18:41.043Z,4.00
2019-04-03T17:21:09.442Z,3.90
2019-04-03T17:23:37.835Z,3.83
2019-04-03T17:26:09.745Z,3.83
2019-04-03T17:28:40.530Z,4.10
2019-04-03T17:31:09.085Z,4.05
2019-04-03T17:33:37.543Z,3.52
2019-04-03T17:36:05.998Z,4.40
2019-04-03T17:38:34.612Z,4.30
2019-04-03T17:41:03.011Z,3.92
2019-04-03T17:43:31.418Z,4.12
2019-04-03T17:45:59.838Z,4.28
2019-04-03T17:48:28.223Z,4.37
2019-04-03T17:50:56.629Z,4.58
2019-04-03T17:53:26.968Z,5.20
2019-04-03T17:55:55.398Z,4.42
2019-04-03T17:58:23.797Z,4.85
2019-04-03T18:00:52.664Z,5.50
2019-04-03T18:03:21.614Z,6.47
2019-04-03T18:05:50.038Z,5.97
2019-04-03T18:08:18.462Z,5.70
2019-04-03T18:10:46.855Z,5.75
2019-04-03T18:13:15.353Z,5.47
2019-04-03T18:15:43.779Z,5.78
2019-04-03T18:18:12.199Z,5.80
2019-04-03T18:20:40.615Z,5.58
2019-04-03T18:23:10.688Z,5.25
2019-04-03T18:25:39.386Z,5.35
2019-04-03T18:28:07.810Z,5.37
2019-04-03T18:30:36.211Z,5.72
2019-04-03T18:33:05.957Z,5.20
2019-04-03T18:35:34.541Z,4.37
2019-04-03T18:38:02.946Z,4.58
2019-04-03T18:40:31.352Z,4.78
2019-04-03T18:42:59.764Z,4.83
2019-04-03T18:45:28.191Z,4.97
2019-04-03T18:47:56.575Z,4.70
2019-04-03T18:50:25.046Z,4.90
2019-04-03T18:52:53.598Z,5.22
2019-04-03T18:55:21.980Z,5.40
2019-04-03T18:57:50.506Z,6.10
2019-04-03T19:00:19.059Z,5.78
2019-04-03T19:02:47.470Z,6.37
2019-04-03T19:05:15.954Z,6.35
2019-04-03T19:07:46.671Z,6.58
2019-04-03T19:10:17.961Z,6.22
2019-04-03T19:12:45.065Z,6.90
2019-04-03T19:15:13.679Z,6.55
2019-04-03T19:17:42.079Z,7.12
2019-04-03T19:20:14.879Z,7.83
2019-04-03T19:22:43.281Z,7.97
2019-04-03T19:25:12.270Z,7.58
2019-04-03T19:27:40.703Z,8.55
2019-04-03T19:30:10.124Z,7.78
2019-04-03T19:32:38.693Z,7.42
2019-04-03T19:35:09.446Z,7.35
2019-04-03T19:37:40.910Z,7.37
2019-04-03T19:40:10.579Z,7.20
2019-04-03T19:42:39.160Z,7.72
2019-04-03T19:45:08.689Z,8.83
2019-04-03T19:47:37.194Z,7.83
2019-04-03T19:50:07.866Z,8.10
2019-04-03T19:52:37.317Z,8.35
2019-04-03T19:55:08.101Z,8.45
2019-04-03T19:57:36.526Z,8.23
2019-04-03T20:00:06.898Z,7.95
2019-04-03T20:02:37.800Z,8.23
2019-04-03T20:05:06.822Z,8.40
2019-04-03T20:07:35.562Z,8.78
2019-04-03T20:10:06.684Z,9.00
2019-04-03T20:12:35.845Z,8.70
2019-04-03T20:15:08.464Z,8.20
2019-04-03T20:17:36.875Z,8.98
2019-04-03T20:20:07.755Z,8.98
2019-04-03T20:22:37.869Z,9.55
2019-04-03T20:25:06.834Z,9.33
2019-04-03T20:27:35.278Z,9.53
2019-04-03T20:30:06.659Z,9.63
2019-04-03T20:32:35.466Z,10.35
2019-04-03T20:35:05.914Z,9.75
2019-04-03T20:37:34.319Z,10.10
2019-04-03T20:40:02.919Z,10.82
2019-04-03T20:42:31.337Z,11.20
2019-04-03T20:44:59.768Z,10.90
2019-04-03T20:47:28.186Z,12.47
2019-04-03T20:49:56.602Z,10.78
2019-04-03T20:52:25.018Z,11.93
2019-04-03T20:54:53.970Z,11.68
2019-04-03T20:57:22.694Z,11.25
2019-04-03T21:00:01.838Z,12.15
2019-04-03T21:02:21.343Z,11.93
2019-04-03T21:04:49.922Z,11.85
2019-04-03T21:07:18.351Z,11.15
2019-04-03T21:09:46.796Z,11.90
2019-04-03T21:12:15.286Z,11.38
2019-04-03T21:14:44.122Z,11.68
2019-04-03T21:17:12.527Z,11.50
2019-04-03T21:19:40.934Z,10.58
2019-04-03T21:22:09.604Z,11.25
2019-04-03T21:24:38.314Z,10.90
2019-04-03T21:27:06.876Z,10.05
2019-04-03T21:29:37.050Z,10.58
2019-04-03T21:32:05.522Z,10.28
2019-04-03T21:34:33.957Z,9.70
2019-04-03T21:37:02.400Z,9.73
2019-04-03T21:39:33.526Z,8.90
2019-04-03T21:42:00.923Z,9.60
2019-04-03T21:44:30.001Z,10.13
2019-04-03T21:46:59.467Z,9.80
2019-04-03T21:49:27.890Z,9.25
2019-04-03T21:51:56.482Z,9.13
2019-04-03T21:54:26.729Z,9.73
2019-04-03T21:56:55.208Z,9.93
2019-04-03T21:59:23.702Z,11.03
2019-04-03T22:01:52.182Z,10.93
2019-04-03T22:04:20.889Z,11.38
2019-04-03T22:06:50.798Z,10.80
2019-04-03T22:09:19.218Z,11.12
2019-04-03T22:11:47.662Z,11.55
2019-04-03T22:14:16.155Z,11.00
2019-04-03T22:16:44.574Z,11.60
2019-04-03T22:19:12.986Z,11.35
2019-04-03T22:21:41.378Z,11.35
2019-04-03T22:24:09.802Z,11.30
2019-04-03T22:26:38.854Z,11.73
2019-04-03T22:29:08.422Z,12.58
2019-04-03T22:31:36.839Z,12.33
2019-04-03T22:34:05.262Z,12.28
2019-04-03T22:36:34.107Z,11.70
2019-04-03T22:39:02.614Z,12.00
2019-04-03T22:41:31.038Z,11.12
2019-04-03T22:43:59.469Z,11.25
2019-04-03T22:46:27.873Z,11.65
2019-04-03T22:48:56.302Z,11.12
2019-04-03T22:51:24.700Z,11.73
2019-04-03T22:53:53.126Z,12.47
2019-04-03T22:56:21.524Z,12.25
2019-04-03T22:58:52.563Z,12.33
2019-04-03T23:01:20.402Z,12.23
2019-04-03T23:03:49.369Z,12.55
2019-04-03T23:06:19.470Z,12.15
2019-04-03T23:08:47.960Z,12.82
2019-04-03T23:11:16.390Z,12.68
2019-04-03T23:13:44.791Z,12.33
2019-04-03T23:16:21.842Z,11.90
2019-04-03T23:18:50.252Z,11.57
2019-04-03T23:21:18.651Z,11.50
2019-04-03T23:23:47.070Z,11.12
2019-04-03T23:26:16.869Z,11.10
2019-04-03T23:28:45.274Z,12.15
2019-04-03T23:31:13.706Z,11.12
2019-04-03T23:33:42.108Z,11.38
2019-04-03T23:36:10.518Z,11.63
2019-04-03T23:38:38.918Z,11.28
2019-04-03T23:41:07.333Z,11.05
2019-04-03T23:43:35.738Z,11.68
2019-04-03T23:46:04.162Z,11.43
2019-04-03T23:48:32.573Z,12.18
2019-04-03T23:51:01.022Z,12.85
2019-04-03T23:53:31.952Z,12.55
2019-04-03T23:55:59.595Z,12.65
2019-04-03T23:58:28.018Z,12.37
